sensor_id;sensor_type;location;lat;lon;timestamp;pressure;altitude;pressure_sealevel;temperature;humidity
69027;BME280;56080;47.594;19.116;2023-03-18T00:04:45;100731;;;3.55;59.26
69027;BME280;56080;47.594;19.116;2023-03-18T00:14:45;100729;;;3.37;59.42
69027;BME280;56080;47.594;19.116;2023-03-18T00:24:45;100726;;;3.28;60.42
69027;BME280;56080;47.594;19.116;2023-03-18T00:34:45;100726;;;3.20;61.08
69027;BME280;56080;47.594;19.116;2023-03-18T00:44:46;100716;;;3.11;61.36
69027;BME280;56080;47.594;19.116;2023-03-18T00:54:47;100702;;;3.14;61.84
69027;BME280;56080;47.594;19.116;2023-03-18T01:04:46;100704;;;3.05;63.12
69027;BME280;56080;47.594;19.116;2023-03-18T01:14:47;100694;;;2.97;63.45
69027;BME280;56080;47.594;19.116;2023-03-18T01:24:46;100689;;;2.89;63.66
69027;BME280;56080;47.594;19.116;2023-03-18T01:34:46;100674;;;2.82;63.26
69027;BME280;56080;47.594;19.116;2023-03-18T01:44:47;100673;;;2.71;63.45
69027;BME280;56080;47.594;19.116;2023-03-18T01:54:50;100657;;;2.42;63.73
69027;BME280;56080;47.594;19.116;2023-03-18T02:04:49;100659;;;2.56;63.88
69027;BME280;56080;47.594;19.116;2023-03-18T02:14:47;100645;;;2.53;64.60
69027;BME280;56080;47.594;19.116;2023-03-18T02:24:59;100639;;;2.28;65.23
69027;BME280;56080;47.594;19.116;2023-03-18T02:34:47;100642;;;2.05;66.16
69027;BME280;56080;47.594;19.116;2023-03-18T02:44:48;100649;;;1.81;67.09
69027;BME280;56080;47.594;19.116;2023-03-18T02:54:47;100656;;;1.85;66.03
69027;BME280;56080;47.594;19.116;2023-03-18T03:04:48;100662;;;1.95;65.10
69027;BME280;56080;47.594;19.116;2023-03-18T03:14:48;100660;;;1.72;65.05
69027;BME280;56080;47.594;19.116;2023-03-18T03:24:48;100659;;;1.79;64.30
69027;BME280;56080;47.594;19.116;2023-03-18T03:34:48;100664;;;1.88;64.09
69027;BME280;56080;47.594;19.116;2023-03-18T03:44:48;100674;;;1.67;64.05
69027;BME280;56080;47.594;19.116;2023-03-18T03:54:49;100685;;;1.47;64.06
69027;BME280;56080;47.594;19.116;2023-03-18T04:04:49;100685;;;1.49;64.01
69027;BME280;56080;47.594;19.116;2023-03-18T04:14:51;100678;;;1.71;64.17
69027;BME280;56080;47.594;19.116;2023-03-18T04:24:48;100694;;;1.77;65.14
69027;BME280;56080;47.594;19.116;2023-03-18T04:34:49;100698;;;1.49;66.66
69027;BME280;56080;47.594;19.116;2023-03-18T04:44:49;100709;;;1.26;68.39
69027;BME280;56080;47.594;19.116;2023-03-18T04:54:49;100713;;;1.49;66.62
69027;BME280;56080;47.594;19.116;2023-03-18T05:04:50;100719;;;1.27;67.07
69027;BME280;56080;47.594;19.116;2023-03-18T05:14:49;100725;;;1.49;66.18
69027;BME280;56080;47.594;19.116;2023-03-18T05:24:49;100728;;;1.55;65.30
69027;BME280;56080;47.594;19.116;2023-03-18T05:34:50;100729;;;1.73;64.68
69027;BME280;56080;47.594;19.116;2023-03-18T05:44:49;100740;;;1.85;65.81
69027;BME280;56080;47.594;19.116;2023-03-18T05:54:50;100740;;;2.01;65.22
69027;BME280;56080;47.594;19.116;2023-03-18T06:14:51;100755;;;2.42;63.15
69027;BME280;56080;47.594;19.116;2023-03-18T06:24:50;100752;;;2.65;62.73
69027;BME280;56080;47.594;19.116;2023-03-18T06:34:51;100760;;;3.09;62.86
69027;BME280;56080;47.594;19.116;2023-03-18T06:44:52;100769;;;3.23;63.24
69027;BME280;56080;47.594;19.116;2023-03-18T06:54:51;100782;;;3.32;61.32
69027;BME280;56080;47.594;19.116;2023-03-18T07:04:51;100786;;;3.46;60.15
69027;BME280;56080;47.594;19.116;2023-03-18T07:14:52;100786;;;3.75;58.76
69027;BME280;56080;47.594;19.116;2023-03-18T07:24:52;100789;;;4.09;57.16
69027;BME280;56080;47.594;19.116;2023-03-18T07:34:52;100791;;;4.39;56.52
69027;BME280;56080;47.594;19.116;2023-03-18T07:44:52;100791;;;4.80;54.91
69027;BME280;56080;47.594;19.116;2023-03-18T07:54:52;100801;;;5.17;53.27
69027;BME280;56080;47.594;19.116;2023-03-18T08:04:53;100802;;;5.49;51.59
69027;BME280;56080;47.594;19.116;2023-03-18T08:14:53;100799;;;6.17;49.85
69027;BME280;56080;47.594;19.116;2023-03-18T08:24:54;100777;;;9.20;44.16
69027;BME280;56080;47.594;19.116;2023-03-18T08:34:54;100765;;;11.27;36.64
69027;BME280;56080;47.594;19.116;2023-03-18T08:44:55;100760;;;11.91;33.81
69027;BME280;56080;47.594;19.116;2023-03-18T08:54:56;100753;;;12.36;33.44
69027;BME280;56080;47.594;19.116;2023-03-18T09:04:57;100747;;;13.29;31.87
69027;BME280;56080;47.594;19.116;2023-03-18T09:14:58;100748;;;12.22;33.12
69027;BME280;56080;47.594;19.116;2023-03-18T09:25:01;100737;;;12.42;32.76
69027;BME280;56080;47.594;19.116;2023-03-18T09:35:00;100724;;;12.81;31.75
69027;BME280;56080;47.594;19.116;2023-03-18T09:45:02;100725;;;12.36;32.85
69027;BME280;56080;47.594;19.116;2023-03-18T10:05:04;100718;;;12.33;34.51
69027;BME280;56080;47.594;19.116;2023-03-18T10:15:20;100715;;;11.85;35.15
69027;BME280;56080;47.594;19.116;2023-03-18T10:45:19;100703;;;11.53;35.81
69027;BME280;56080;47.594;19.116;2023-03-18T10:55:11;100693;;;12.17;35.36
69027;BME280;56080;47.594;19.116;2023-03-18T11:15:10;100664;;;12.21;35.41
69027;BME280;56080;47.594;19.116;2023-03-18T11:25:26;100657;;;12.20;36.26
69027;BME280;56080;47.594;19.116;2023-03-18T11:35:14;100641;;;12.52;34.62
69027;BME280;56080;47.594;19.116;2023-03-18T12:05:27;100619;;;12.39;35.35
69027;BME280;56080;47.594;19.116;2023-03-18T12:15:18;100603;;;12.52;35.85
69027;BME280;56080;47.594;19.116;2023-03-18T12:25:19;100594;;;12.59;36.13
69027;BME280;56080;47.594;19.116;2023-03-18T12:45:17;100584;;;12.47;36.61
69027;BME280;56080;47.594;19.116;2023-03-18T12:55:21;100593;;;12.65;37.06
69027;BME280;56080;47.594;19.116;2023-03-18T13:05:23;100586;;;12.80;37.56
69027;BME280;56080;47.594;19.116;2023-03-18T13:15:22;100601;;;12.60;37.89
69027;BME280;56080;47.594;19.116;2023-03-18T13:35:25;100587;;;12.80;38.53
69027;BME280;56080;47.594;19.116;2023-03-18T13:45:30;100577;;;12.85;38.13
69027;BME280;56080;47.594;19.116;2023-03-18T13:55:32;100572;;;12.97;38.41
69027;BME280;56080;47.594;19.116;2023-03-18T14:05:33;100562;;;12.95;38.14
69027;BME280;56080;47.594;19.116;2023-03-18T14:35:31;100526;;;13.40;38.61
69027;BME280;56080;47.594;19.116;2023-03-18T14:45:31;100520;;;13.01;39.07
69027;BME280;56080;47.594;19.116;2023-03-18T14:55:31;100521;;;13.10;38.71
69027;BME280;56080;47.594;19.116;2023-03-18T15:05:34;100506;;;13.36;38.00
69027;BME280;56080;47.594;19.116;2023-03-18T15:15:31;100508;;;13.04;38.71
69027;BME280;56080;47.594;19.116;2023-03-18T15:25:31;100506;;;12.99;38.72
69027;BME280;56080;47.594;19.116;2023-03-18T15:35:33;100508;;;12.92;39.52
69027;BME280;56080;47.594;19.116;2023-03-18T15:45:34;100513;;;12.86;39.56
69027;BME280;56080;47.594;19.116;2023-03-18T15:55:45;100526;;;12.69;40.22
69027;BME280;56080;47.594;19.116;2023-03-18T16:05:35;100530;;;12.50;40.72
69027;BME280;56080;47.594;19.116;2023-03-18T16:15:36;100537;;;12.42;41.07
69027;BME280;56080;47.594;19.116;2023-03-18T16:25:38;100544;;;12.32;41.80
69027;BME280;56080;47.594;19.116;2023-03-18T16:35:39;100541;;;12.15;41.61
69027;BME280;56080;47.594;19.116;2023-03-18T16:45:38;100544;;;11.93;42.25
69027;BME280;56080;47.594;19.116;2023-03-18T16:55:39;100548;;;11.72;42.91
69027;BME280;56080;47.594;19.116;2023-03-18T17:05:40;100548;;;11.45;43.73
69027;BME280;56080;47.594;19.116;2023-03-18T17:25:47;100560;;;11.04;45.09
69027;BME280;56080;47.594;19.116;2023-03-18T17:35:45;100563;;;10.76;45.94
69027;BME280;56080;47.594;19.116;2023-03-18T17:45:45;100568;;;10.56;46.64
69027;BME280;56080;47.594;19.116;2023-03-18T17:55:45;100571;;;10.42;47.24
69027;BME280;56080;47.594;19.116;2023-03-18T18:05:46;100583;;;10.29;47.78
69027;BME280;56080;47.594;19.116;2023-03-18T18:15:46;100581;;;10.15;48.25
69027;BME280;56080;47.594;19.116;2023-03-18T18:25:48;100587;;;10.00;48.85
69027;BME280;56080;47.594;19.116;2023-03-18T18:35:50;100589;;;9.80;49.67
69027;BME280;56080;47.594;19.116;2023-03-18T18:45:51;100597;;;9.68;50.36
69027;BME280;56080;47.594;19.116;2023-03-18T18:55:50;100600;;;9.66;50.75
69027;BME280;56080;47.594;19.116;2023-03-18T19:05:52;100594;;;9.53;51.29
69027;BME280;56080;47.594;19.116;2023-03-18T19:15:51;100595;;;9.40;51.75
69027;BME280;56080;47.594;19.116;2023-03-18T19:25:52;100603;;;9.29;52.44
69027;BME280;56080;47.594;19.116;2023-03-18T19:35:56;100603;;;9.17;52.93
69027;BME280;56080;47.594;19.116;2023-03-18T19:45:55;100610;;;9.08;53.50
69027;BME280;56080;47.594;19.116;2023-03-18T19:55:54;100612;;;9.02;54.17
69027;BME280;56080;47.594;19.116;2023-03-18T20:05:55;100621;;;8.95;55.51
69027;BME280;56080;47.594;19.116;2023-03-18T20:15:55;100620;;;8.83;56.72
69027;BME280;56080;47.594;19.116;2023-03-18T20:25:57;100621;;;8.86;57.45
69027;BME280;56080;47.594;19.116;2023-03-18T20:35:56;100623;;;8.63;57.89
69027;BME280;56080;47.594;19.116;2023-03-18T20:45:56;100617;;;8.54;58.30
69027;BME280;56080;47.594;19.116;2023-03-18T21:06:00;100628;;;8.10;59.94
69027;BME280;56080;47.594;19.116;2023-03-18T21:16:00;100631;;;8.09;59.42
69027;BME280;56080;47.594;19.116;2023-03-18T21:25:59;100631;;;8.22;58.96
69027;BME280;56080;47.594;19.116;2023-03-18T21:36:00;100637;;;8.19;58.89
69027;BME280;56080;47.594;19.116;2023-03-18T21:46:02;100627;;;8.05;59.70
69027;BME280;56080;47.594;19.116;2023-03-18T21:56:00;100623;;;7.59;61.53
69027;BME280;56080;47.594;19.116;2023-03-18T22:06:01;100630;;;7.93;60.63
69027;BME280;56080;47.594;19.116;2023-03-18T22:16:01;100629;;;7.59;61.18
69027;BME280;56080;47.594;19.116;2023-03-18T22:26:02;100639;;;7.66;61.36
69027;BME280;56080;47.594;19.116;2023-03-18T22:36:02;100640;;;7.33;61.60
69027;BME280;56080;47.594;19.116;2023-03-18T22:46:05;100646;;;7.05;62.50
69027;BME280;56080;47.594;19.116;2023-03-18T22:56:06;100646;;;6.78;62.82
69027;BME280;56080;47.594;19.116;2023-03-18T23:06:04;100655;;;6.60;63.88
69027;BME280;56080;47.594;19.116;2023-03-18T23:16:05;100654;;;6.41;64.76
69027;BME280;56080;47.594;19.116;2023-03-18T23:26:05;100660;;;6.01;66.07
69027;BME280;56080;47.594;19.116;2023-03-18T23:36:06;100680;;;6.00;66.47
69027;BME280;56080;47.594;19.116;2023-03-18T23:46:07;100670;;;5.75;67.52
69027;BME280;56080;47.594;19.116;2023-03-18T23:56:07;100675;;;5.51;68.03
